Sommer S — WDG3830 — position and weather

sailwx.info

Track history (hours):
 
Tides and Currents Weather Stations Pressure Air Temp Water Temp Dewpoint Dewpoint Depression Visibility Wind Speed Wind Dir Waves Ship Positions

Sommer S

Owner: Shaver Transportation Company, Portland, OR. More information available from US FCC via Universal Licensing System and Coast Guard Vessel Documentation Center.

Last reported at 2015-May-28 13:32 UTC. Time now 2015-May-28 14:10 UTC.
Position N 45°34' W 122°44'.

Length 25 m.

Type: Tug. MMSI: 367530080.

Date/timePositionNaut miles runAvg speedWind from/ knotsBaromVisibWave heightAir tempDewpointWater temp
2015-May-28 13:32N 45°34' W 122°44'0 0.0
2015-May-28 12:33N 45°34' W 122°44'0 0.0
2015-May-28 11:34N 45°34' W 122°44'0 0.0
2015-May-28 10:33N 45°34' W 122°44'0 0.0
2015-May-28 09:33N 45°34' W 122°44'0 0.0
2015-May-28 08:33N 45°34' W 122°44'5 5.3
2015-May-28 07:33N 45°39' W 122°47'2 1.5
2015-May-28 06:33N 45°39' W 122°44'1 1.0
2015-May-28 05:33N 45°38' W 122°43'1 1.2
2015-May-28 04:33N 45°39' W 122°45'1 0.8
2015-May-28 03:33N 45°38' W 122°44'0 0.0
2015-May-28 02:33N 45°38' W 122°44'0 0.0
2015-May-28 01:33N 45°38' W 122°44'0 0.0
2015-May-28 00:33N 45°38' W 122°44'0 0.0
2015-May-27 23:34N 45°38' W 122°44'1 1.1
2015-May-27 22:33N 45°38' W 122°42'2 1.9
2015-May-27 21:33N 45°39' W 122°45'0 0.0
2015-May-27 20:33N 45°39' W 122°45'0 0.0
2015-May-27 19:33N 45°39' W 122°45'0 0.0
2015-May-27 18:33N 45°39' W 122°45'0 0.0
2015-May-27 17:33N 45°39' W 122°45'0 0.0
2015-May-27 16:33N 45°39' W 122°45'2 1.5
2015-May-27 15:33N 45°38' W 122°47'2 1.5
2015-May-27 14:33N 45°39' W 122°45'0 0.0
2015-May-27 13:33N 45°39' W 122°45'0 0.0
2015-May-27 12:33N 45°39' W 122°45'0 0.0
2015-May-27 11:33N 45°39' W 122°45'0 0.0
2015-May-27 10:33N 45°39' W 122°45'0 0.0
2015-May-27 09:34N 45°39' W 122°45'4 4.4
2015-May-27 08:33N 45°43' W 122°46'9 9.3
2015-May-27 07:33N 45°52' W 122°47'10 9.6
2015-May-27 06:33N 46°01' W 122°52'6 5.6
2015-May-27 05:33N 46°06' W 122°56'4 3.6
2015-May-27 04:33N 46°03' W 122°53'1313.0
2015-May-27 03:33N 45°51' W 122°47'1212.1
2015-May-27 02:33N 45°39' W 122°45'3 2.6
2015-May-27 01:33N 45°36' W 122°47'4 4.1
2015-May-27 00:33N 45°33' W 122°43'2 2.1
2015-May-26 23:33N 45°32' W 122°41'3 2.7
2015-May-26 22:33N 45°34' W 122°44'0 0.0
2015-May-26 21:34N 45°34' W 122°44'0 0.0
2015-May-26 20:33N 45°34' W 122°44'0 0.0
2015-May-26 19:33N 45°34' W 122°44'0 0.0
2015-May-26 18:33N 45°34' W 122°44'0 0.0
2015-May-26 17:33N 45°34' W 122°44'0 0.5
2015-May-26 16:33N 45°34' W 122°44'0 0.3
2015-May-26 15:33N 45°34' W 122°43'0 0.1
2015-May-26 14:33N 45°34' W 122°43'0 0.3
2015-May-26 13:33N 45°34' W 122°44'0 0.0
2015-May-26 12:33N 45°34' W 122°44'0 0.0
2015-May-26 11:33N 45°34' W 122°44'5 5.3
2015-May-26 10:33N 45°39' W 122°46'1 1.2
2015-May-26 09:33N 45°39' W 122°45'0 0.0
2015-May-26 08:33N 45°39' W 122°45'0 0.0
2015-May-26 07:33N 45°39' W 122°45'0 0.0
2015-May-26 06:33N 45°39' W 122°45'0 0.0
2015-May-26 05:33N 45°39' W 122°45'0 0.0
2015-May-26 04:33N 45°39' W 122°45'0 0.0
2015-May-26 03:33N 45°39' W 122°45'0 0.0
2015-May-26 02:33N 45°39' W 122°45'0 0.0
2015-May-26 01:33N 45°39' W 122°45'1 1.5
2015-May-26 00:33N 45°38' W 122°43'1 1.2
2015-May-25 23:33N 45°39' W 122°44'5 5.1
2015-May-25 22:33N 45°34' W 122°44'3 2.5
2015-May-25 21:32N 45°32' W 122°41'3 2.7
2015-May-25 20:33N 45°34' W 122°44'0 0.0
2015-May-25 19:33N 45°34' W 122°44'0 0.0
2015-May-25 18:33N 45°34' W 122°44'0 0.0
2015-May-25 17:33N 45°34' W 122°44'0 0.0
2015-May-25 16:33N 45°34' W 122°44'0 0.0
2015-May-25 15:33N 45°34' W 122°44'0 0.0
2015-May-25 14:33N 45°34' W 122°44'0 0.0
2015-May-25 13:33N 45°34' W 122°44'0 0.0
2015-May-25 12:33N 45°34' W 122°44'0 0.0
2015-May-25 11:33N 45°34' W 122°44'0 0.0
2015-May-25 10:33N 45°34' W 122°44'0 0.0
2015-May-25 09:33N 45°34' W 122°44'0 0.0
2015-May-25 08:33N 45°34' W 122°44'0 0.0
2015-May-25 07:33N 45°34' W 122°44'0 0.0
2015-May-25 06:33N 45°34' W 122°44'0 0.0
2015-May-25 05:33N 45°34' W 122°44'0 0.0
2015-May-25 04:33N 45°34' W 122°44'0 0.0
2015-May-25 03:33N 45°34' W 122°44'0 0.0
2015-May-25 02:33N 45°34' W 122°44'0 0.0
2015-May-25 01:33N 45°34' W 122°44'0 0.0
2015-May-25 00:33N 45°34' W 122°44'0 0.0
2015-May-24 23:33N 45°34' W 122°44'0 0.0
2015-May-24 22:33N 45°34' W 122°44'0 0.0
2015-May-24 21:33N 45°34' W 122°44'0 0.0
2015-May-24 20:33N 45°34' W 122°44'0 0.0
2015-May-24 19:33N 45°34' W 122°44'0 0.0
2015-May-24 18:33N 45°34' W 122°44'0 0.0
2015-May-24 17:33N 45°34' W 122°44'1 1.4
2015-May-24 16:33N 45°35' W 122°45'3 2.5
2015-May-24 15:33N 45°37' W 122°47'0 0.3
2015-May-24 14:33N 45°36' W 122°47'4 3.6
2015-May-24 13:33N 45°34' W 122°44'0 0.0
2015-May-24 12:33N 45°34' W 122°44'0 0.0
2015-May-24 11:33N 45°34' W 122°44'0 0.0
2015-May-24 10:33N 45°34' W 122°44'0 0.0
2015-May-24 09:33N 45°34' W 122°44'0 0.0
2015-May-24 08:33N 45°34' W 122°44'0 0.0
2015-May-24 07:33N 45°34' W 122°44'0 0.0
2015-May-24 06:33N 45°34' W 122°44'0 0.0
2015-May-24 05:33N 45°34' W 122°44'0 0.0
2015-May-24 04:33N 45°34' W 122°44'0 0.0
2015-May-24 03:33N 45°34' W 122°44'0 0.0
2015-May-24 02:33N 45°34' W 122°44'0 0.0
2015-May-24 01:33N 45°34' W 122°44'0 0.0
2015-May-24 00:33N 45°34' W 122°44'0 0.0
2015-May-23 23:33N 45°34' W 122°44'0 0.0
2015-May-23 22:33N 45°34' W 122°44'0 0.0
2015-May-23 21:33N 45°34' W 122°44'0 0.0
2015-May-23 20:33N 45°34' W 122°44'0 0.0
2015-May-23 19:33N 45°34' W 122°44'0 0.0
2015-May-23 18:33N 45°34' W 122°44'0 0.0
2015-May-23 17:33N 45°34' W 122°44'0 0.0
2015-May-23 16:33N 45°34' W 122°44'0 0.0
2015-May-23 15:33N 45°34' W 122°44'0 0.0
2015-May-23 14:33N 45°34' W 122°44'0 0.0
2015-May-23 13:33N 45°34' W 122°44'0 0.0
2015-May-23 12:33N 45°34' W 122°44'0 0.0
2015-May-23 11:33N 45°34' W 122°44'0 0.0
2015-May-23 10:33N 45°34' W 122°44'0 0.0
2015-May-23 09:33N 45°34' W 122°44'0 0.0
2015-May-23 08:33N 45°34' W 122°44'0 0.0
2015-May-23 07:33N 45°34' W 122°44'0 0.0
2015-May-23 06:33N 45°34' W 122°44'0 0.0
2015-May-23 05:33N 45°34' W 122°44'0 0.0
2015-May-23 04:33N 45°34' W 122°44'0 0.0
2015-May-23 03:33N 45°34' W 122°44'0 0.0
2015-May-23 02:33N 45°34' W 122°44'2 2.3
2015-May-23 01:33N 45°35' W 122°46'2 1.5
2015-May-23 00:33N 45°37' W 122°47'4 3.7
2015-May-22 23:33N 45°34' W 122°44'0 0.0
2015-May-22 22:33N 45°34' W 122°44'0 0.0
2015-May-22 21:33N 45°34' W 122°44'0 0.0
2015-May-22 20:33N 45°34' W 122°44'1 0.5
2015-May-22 19:33N 45°34' W 122°43'0 0.2
2015-May-22 18:33N 45°34' W 122°44'0 0.0
2015-May-22 17:33N 45°34' W 122°44'0 0.0
2015-May-22 16:33N 45°34' W 122°44'0 0.0
2015-May-22 15:33N 45°34' W 122°44'0 0.2
2015-May-22 14:33N 45°34' W 122°43'1 0.5
2015-May-22 13:26N 45°34' W 122°44'0 0.0
2015-May-22 12:32N 45°34' W 122°44'0 0.0
2015-May-22 11:32N 45°34' W 122°44'0 0.0
2015-May-22 10:32N 45°34' W 122°44'0 0.0
2015-May-22 09:26N 45°34' W 122°44'0 0.0
2015-May-22 08:32N 45°34' W 122°44'0 0.0
2015-May-22 07:26N 45°34' W 122°44'0 0.0
2015-May-22 06:32N 45°34' W 122°44'0 0.0
2015-May-22 05:20N 45°34' W 122°44'0 0.0
2015-May-22 04:29N 45°34' W 122°44'0 0.0
2015-May-22 03:23N 45°34' W 122°44'0 0.0
2015-May-22 02:32N 45°34' W 122°44'0 0.0
2015-May-22 01:29N 45°34' W 122°44'0 0.0
2015-May-22 00:32N 45°34' W 122°44'0 0.0
2015-May-21 23:29N 45°34' W 122°44'0 0.0
2015-May-21 22:33N 45°34' W 122°44'0 0.0
2015-May-21 21:28N 45°34' W 122°44'0 0.0
2015-May-21 20:19N 45°34' W 122°44'0 0.0
2015-May-21 19:31N 45°34' W 122°44'0 0.0
2015-May-21 18:13N 45°34' W 122°44'0 0.0
2015-May-21 17:28N 45°34' W 122°44'0 0.0
2015-May-21 16:31N 45°34' W 122°44'0 0.0
2015-May-21 15:10N 45°34' W 122°44'0 0.0
2015-May-21 14:22N 45°34' W 122°44'0 0.0
2015-May-21 13:25N 45°34' W 122°44'0 0.0
2015-May-21 12:31N 45°34' W 122°44'0 0.0
2015-May-21 11:28N 45°34' W 122°44'0 0.0
2015-May-21 10:25N 45°34' W 122°44'0 0.0
2015-May-21 09:19N 45°34' W 122°44'0 0.0
2015-May-21 08:31N 45°34' W 122°44'0 0.0
2015-May-21 07:31N 45°34' W 122°44'0 0.0
2015-May-21 06:19N 45°34' W 122°44'0 0.0
2015-May-21 05:25N 45°34' W 122°44'0 0.0
2015-May-21 04:25N 45°34' W 122°44'3 3.3
2015-May-21 03:28N 45°36' W 122°47'1 1.1
2015-May-21 02:31N 45°37' W 122°47'4 3.9
2015-May-21 01:27N 45°34' W 122°44'0 0.0
2015-May-21 00:33N 45°34' W 122°44'0 0.0
2015-May-20 23:30N 45°34' W 122°44'0 0.0
2015-May-20 22:30N 45°34' W 122°44'0 0.0
2015-May-20 21:29N 45°34' W 122°44'  
2015-May-18 13:33N 45°34' W 122°44'  
Track history (hours):
 
Tides and Currents Weather Stations Pressure Air Temp Water Temp Dewpoint Dewpoint Depression Visibility Wind Speed Wind Dir Waves Ship Positions

Sommer S

Owner: Shaver Transportation Company, Portland, OR. More information available from US FCC via Universal Licensing System and Coast Guard Vessel Documentation Center.

Last reported at 2015-May-28 13:32 UTC. Time now 2015-May-28 14:10 UTC.
Position N 45°34' W 122°44'.

Length 25 m.

Type: Tug. MMSI: 367530080.

Date/timePositionNaut miles runAvg speedWind from/ knotsBaromVisibWave heightAir tempDewpointWater temp
2015-May-28 13:32N 45°34' W 122°44'0 0.0
2015-May-28 12:33N 45°34' W 122°44'0 0.0
2015-May-28 11:34N 45°34' W 122°44'0 0.0
2015-May-28 10:33N 45°34' W 122°44'0 0.0
2015-May-28 09:33N 45°34' W 122°44'0 0.0
2015-May-28 08:33N 45°34' W 122°44'5 5.3
2015-May-28 07:33N 45°39' W 122°47'2 1.5
2015-May-28 06:33N 45°39' W 122°44'1 1.0
2015-May-28 05:33N 45°38' W 122°43'1 1.2
2015-May-28 04:33N 45°39' W 122°45'1 0.8
2015-May-28 03:33N 45°38' W 122°44'0 0.0
2015-May-28 02:33N 45°38' W 122°44'0 0.0
2015-May-28 01:33N 45°38' W 122°44'0 0.0
2015-May-28 00:33N 45°38' W 122°44'0 0.0
2015-May-27 23:34N 45°38' W 122°44'1 1.1
2015-May-27 22:33N 45°38' W 122°42'2 1.9
2015-May-27 21:33N 45°39' W 122°45'0 0.0
2015-May-27 20:33N 45°39' W 122°45'0 0.0
2015-May-27 19:33N 45°39' W 122°45'0 0.0
2015-May-27 18:33N 45°39' W 122°45'0 0.0
2015-May-27 17:33N 45°39' W 122°45'0 0.0
2015-May-27 16:33N 45°39' W 122°45'2 1.5
2015-May-27 15:33N 45°38' W 122°47'2 1.5
2015-May-27 14:33N 45°39' W 122°45'0 0.0
2015-May-27 13:33N 45°39' W 122°45'0 0.0
2015-May-27 12:33N 45°39' W 122°45'0 0.0
2015-May-27 11:33N 45°39' W 122°45'0 0.0
2015-May-27 10:33N 45°39' W 122°45'0 0.0
2015-May-27 09:34N 45°39' W 122°45'4 4.4
2015-May-27 08:33N 45°43' W 122°46'9 9.3
2015-May-27 07:33N 45°52' W 122°47'10 9.6
2015-May-27 06:33N 46°01' W 122°52'6 5.6
2015-May-27 05:33N 46°06' W 122°56'4 3.6
2015-May-27 04:33N 46°03' W 122°53'1313.0
2015-May-27 03:33N 45°51' W 122°47'1212.1
2015-May-27 02:33N 45°39' W 122°45'3 2.6
2015-May-27 01:33N 45°36' W 122°47'4 4.1
2015-May-27 00:33N 45°33' W 122°43'2 2.1
2015-May-26 23:33N 45°32' W 122°41'3 2.7
2015-May-26 22:33N 45°34' W 122°44'0 0.0
2015-May-26 21:34N 45°34' W 122°44'0 0.0
2015-May-26 20:33N 45°34' W 122°44'0 0.0
2015-May-26 19:33N 45°34' W 122°44'0 0.0
2015-May-26 18:33N 45°34' W 122°44'0 0.0
2015-May-26 17:33N 45°34' W 122°44'0 0.5
2015-May-26 16:33N 45°34' W 122°44'0 0.3
2015-May-26 15:33N 45°34' W 122°43'0 0.1
2015-May-26 14:33N 45°34' W 122°43'0 0.3
2015-May-26 13:33N 45°34' W 122°44'0 0.0
2015-May-26 12:33N 45°34' W 122°44'0 0.0
2015-May-26 11:33N 45°34' W 122°44'5 5.3
2015-May-26 10:33N 45°39' W 122°46'1 1.2
2015-May-26 09:33N 45°39' W 122°45'0 0.0
2015-May-26 08:33N 45°39' W 122°45'0 0.0
2015-May-26 07:33N 45°39' W 122°45'0 0.0
2015-May-26 06:33N 45°39' W 122°45'0 0.0
2015-May-26 05:33N 45°39' W 122°45'0 0.0
2015-May-26 04:33N 45°39' W 122°45'0 0.0
2015-May-26 03:33N 45°39' W 122°45'0 0.0
2015-May-26 02:33N 45°39' W 122°45'0 0.0
2015-May-26 01:33N 45°39' W 122°45'1 1.5
2015-May-26 00:33N 45°38' W 122°43'1 1.2
2015-May-25 23:33N 45°39' W 122°44'5 5.1
2015-May-25 22:33N 45°34' W 122°44'3 2.5
2015-May-25 21:32N 45°32' W 122°41'3 2.7
2015-May-25 20:33N 45°34' W 122°44'0 0.0
2015-May-25 19:33N 45°34' W 122°44'0 0.0
2015-May-25 18:33N 45°34' W 122°44'0 0.0
2015-May-25 17:33N 45°34' W 122°44'0 0.0
2015-May-25 16:33N 45°34' W 122°44'0 0.0
2015-May-25 15:33N 45°34' W 122°44'0 0.0
2015-May-25 14:33N 45°34' W 122°44'0 0.0
2015-May-25 13:33N 45°34' W 122°44'0 0.0
2015-May-25 12:33N 45°34' W 122°44'0 0.0
2015-May-25 11:33N 45°34' W 122°44'0 0.0
2015-May-25 10:33N 45°34' W 122°44'0 0.0
2015-May-25 09:33N 45°34' W 122°44'0 0.0
2015-May-25 08:33N 45°34' W 122°44'0 0.0
2015-May-25 07:33N 45°34' W 122°44'0 0.0
2015-May-25 06:33N 45°34' W 122°44'0 0.0
2015-May-25 05:33N 45°34' W 122°44'0 0.0
2015-May-25 04:33N 45°34' W 122°44'0 0.0
2015-May-25 03:33N 45°34' W 122°44'0 0.0
2015-May-25 02:33N 45°34' W 122°44'0 0.0
2015-May-25 01:33N 45°34' W 122°44'0 0.0
2015-May-25 00:33N 45°34' W 122°44'0 0.0
2015-May-24 23:33N 45°34' W 122°44'0 0.0
2015-May-24 22:33N 45°34' W 122°44'0 0.0
2015-May-24 21:33N 45°34' W 122°44'0 0.0
2015-May-24 20:33N 45°34' W 122°44'0 0.0
2015-May-24 19:33N 45°34' W 122°44'0 0.0
2015-May-24 18:33N 45°34' W 122°44'0 0.0
2015-May-24 17:33N 45°34' W 122°44'1 1.4
2015-May-24 16:33N 45°35' W 122°45'3 2.5
2015-May-24 15:33N 45°37' W 122°47'0 0.3
2015-May-24 14:33N 45°36' W 122°47'4 3.6
2015-May-24 13:33N 45°34' W 122°44'0 0.0
2015-May-24 12:33N 45°34' W 122°44'0 0.0
2015-May-24 11:33N 45°34' W 122°44'0 0.0
2015-May-24 10:33N 45°34' W 122°44'0 0.0
2015-May-24 09:33N 45°34' W 122°44'0 0.0
2015-May-24 08:33N 45°34' W 122°44'0 0.0
2015-May-24 07:33N 45°34' W 122°44'0 0.0
2015-May-24 06:33N 45°34' W 122°44'0 0.0
2015-May-24 05:33N 45°34' W 122°44'0 0.0
2015-May-24 04:33N 45°34' W 122°44'0 0.0
2015-May-24 03:33N 45°34' W 122°44'0 0.0
2015-May-24 02:33N 45°34' W 122°44'0 0.0
2015-May-24 01:33N 45°34' W 122°44'0 0.0
2015-May-24 00:33N 45°34' W 122°44'0 0.0
2015-May-23 23:33N 45°34' W 122°44'0 0.0
2015-May-23 22:33N 45°34' W 122°44'0 0.0
2015-May-23 21:33N 45°34' W 122°44'0 0.0
2015-May-23 20:33N 45°34' W 122°44'0 0.0
2015-May-23 19:33N 45°34' W 122°44'0 0.0
2015-May-23 18:33N 45°34' W 122°44'0 0.0
2015-May-23 17:33N 45°34' W 122°44'0 0.0
2015-May-23 16:33N 45°34' W 122°44'0 0.0
2015-May-23 15:33N 45°34' W 122°44'0 0.0
2015-May-23 14:33N 45°34' W 122°44'0 0.0
2015-May-23 13:33N 45°34' W 122°44'0 0.0
2015-May-23 12:33N 45°34' W 122°44'0 0.0
2015-May-23 11:33N 45°34' W 122°44'0 0.0
2015-May-23 10:33N 45°34' W 122°44'0 0.0
2015-May-23 09:33N 45°34' W 122°44'0 0.0
2015-May-23 08:33N 45°34' W 122°44'0 0.0
2015-May-23 07:33N 45°34' W 122°44'0 0.0
2015-May-23 06:33N 45°34' W 122°44'0 0.0
2015-May-23 05:33N 45°34' W 122°44'0 0.0
2015-May-23 04:33N 45°34' W 122°44'0 0.0
2015-May-23 03:33N 45°34' W 122°44'0 0.0
2015-May-23 02:33N 45°34' W 122°44'2 2.3
2015-May-23 01:33N 45°35' W 122°46'2 1.5
2015-May-23 00:33N 45°37' W 122°47'4 3.7
2015-May-22 23:33N 45°34' W 122°44'0 0.0
2015-May-22 22:33N 45°34' W 122°44'0 0.0
2015-May-22 21:33N 45°34' W 122°44'0 0.0
2015-May-22 20:33N 45°34' W 122°44'1 0.5
2015-May-22 19:33N 45°34' W 122°43'0 0.2
2015-May-22 18:33N 45°34' W 122°44'0 0.0
2015-May-22 17:33N 45°34' W 122°44'0 0.0
2015-May-22 16:33N 45°34' W 122°44'0 0.0
2015-May-22 15:33N 45°34' W 122°44'0 0.2
2015-May-22 14:33N 45°34' W 122°43'1 0.5
2015-May-22 13:26N 45°34' W 122°44'0 0.0
2015-May-22 12:32N 45°34' W 122°44'0 0.0
2015-May-22 11:32N 45°34' W 122°44'0 0.0
2015-May-22 10:32N 45°34' W 122°44'0 0.0
2015-May-22 09:26N 45°34' W 122°44'0 0.0
2015-May-22 08:32N 45°34' W 122°44'0 0.0
2015-May-22 07:26N 45°34' W 122°44'0 0.0
2015-May-22 06:32N 45°34' W 122°44'0 0.0
2015-May-22 05:20N 45°34' W 122°44'0 0.0
2015-May-22 04:29N 45°34' W 122°44'0 0.0
2015-May-22 03:23N 45°34' W 122°44'0 0.0
2015-May-22 02:32N 45°34' W 122°44'0 0.0
2015-May-22 01:29N 45°34' W 122°44'0 0.0
2015-May-22 00:32N 45°34' W 122°44'0 0.0
2015-May-21 23:29N 45°34' W 122°44'0 0.0
2015-May-21 22:33N 45°34' W 122°44'0 0.0
2015-May-21 21:28N 45°34' W 122°44'0 0.0
2015-May-21 20:19N 45°34' W 122°44'0 0.0
2015-May-21 19:31N 45°34' W 122°44'0 0.0
2015-May-21 18:13N 45°34' W 122°44'0 0.0
2015-May-21 17:28N 45°34' W 122°44'0 0.0
2015-May-21 16:31N 45°34' W 122°44'0 0.0
2015-May-21 15:10N 45°34' W 122°44'0 0.0
2015-May-21 14:22N 45°34' W 122°44'0 0.0
2015-May-21 13:25N 45°34' W 122°44'0 0.0
2015-May-21 12:31N 45°34' W 122°44'0 0.0
2015-May-21 11:28N 45°34' W 122°44'0 0.0
2015-May-21 10:25N 45°34' W 122°44'0 0.0
2015-May-21 09:19N 45°34' W 122°44'0 0.0
2015-May-21 08:31N 45°34' W 122°44'0 0.0
2015-May-21 07:31N 45°34' W 122°44'0 0.0
2015-May-21 06:19N 45°34' W 122°44'0 0.0
2015-May-21 05:25N 45°34' W 122°44'0 0.0
2015-May-21 04:25N 45°34' W 122°44'3 3.3
2015-May-21 03:28N 45°36' W 122°47'1 1.1
2015-May-21 02:31N 45°37' W 122°47'4 3.9
2015-May-21 01:27N 45°34' W 122°44'0 0.0
2015-May-21 00:33N 45°34' W 122°44'0 0.0
2015-May-20 23:30N 45°34' W 122°44'0 0.0
2015-May-20 22:30N 45°34' W 122°44'0 0.0
2015-May-20 21:29N 45°34' W 122°44'  
2015-May-18 13:33N 45°34' W 122°44'  

Dump ship's entire track history